sensor_id;sensor_type;location;lat;lon;timestamp;pressure;altitude;pressure_sealevel;temperature;humidity
62632;BME280;48703;51.248;-0.546;2022-11-15T00:02:47;99873;;;9.54;86.72
62632;BME280;48703;51.248;-0.546;2022-11-15T00:05:49;99871;;;9.52;86.68
62632;BME280;48703;51.248;-0.546;2022-11-15T00:08:50;99867;;;9.50;86.58
62632;BME280;48703;51.248;-0.546;2022-11-15T00:11:52;99864;;;9.50;86.70
62632;BME280;48703;51.248;-0.546;2022-11-15T00:14:54;99864;;;9.50;86.53
62632;BME280;48703;51.248;-0.546;2022-11-15T00:17:56;99853;;;9.49;86.42
62632;BME280;48703;51.248;-0.546;2022-11-15T00:21:03;99845;;;9.48;86.51
62632;BME280;48703;51.248;-0.546;2022-11-15T00:24:00;99836;;;9.48;86.33
62632;BME280;48703;51.248;-0.546;2022-11-15T00:27:02;99830;;;9.47;86.32
62632;BME280;48703;51.248;-0.546;2022-11-15T00:30:04;99824;;;9.46;86.14
62632;BME280;48703;51.248;-0.546;2022-11-15T00:33:06;99817;;;9.46;86.15
62632;BME280;48703;51.248;-0.546;2022-11-15T00:36:08;99807;;;9.44;86.17
62632;BME280;48703;51.248;-0.546;2022-11-15T00:39:09;99799;;;9.44;85.91
62632;BME280;48703;51.248;-0.546;2022-11-15T00:42:11;99789;;;9.42;86.03
62632;BME280;48703;51.248;-0.546;2022-11-15T00:45:13;99786;;;9.41;86.15
62632;BME280;48703;51.248;-0.546;2022-11-15T00:48:15;99784;;;9.40;86.01
62632;BME280;48703;51.248;-0.546;2022-11-15T00:51:17;99784;;;9.39;85.92
62632;BME280;48703;51.248;-0.546;2022-11-15T00:54:19;99775;;;9.39;85.93
62632;BME280;48703;51.248;-0.546;2022-11-15T00:57:20;99763;;;9.38;85.82
62632;BME280;48703;51.248;-0.546;2022-11-15T01:00:22;99756;;;9.38;85.74
62632;BME280;48703;51.248;-0.546;2022-11-15T01:03:24;99753;;;9.39;85.94
62632;BME280;48703;51.248;-0.546;2022-11-15T01:06:26;99744;;;9.38;85.89
62632;BME280;48703;51.248;-0.546;2022-11-15T01:09:28;99739;;;9.38;86.01
62632;BME280;48703;51.248;-0.546;2022-11-15T01:12:30;99735;;;9.38;86.10
62632;BME280;48703;51.248;-0.546;2022-11-15T01:15:32;99730;;;9.39;86.08
62632;BME280;48703;51.248;-0.546;2022-11-15T01:18:33;99724;;;9.38;86.31
62632;BME280;48703;51.248;-0.546;2022-11-15T01:21:35;99705;;;9.39;86.24
62632;BME280;48703;51.248;-0.546;2022-11-15T01:24:37;99697;;;9.40;86.40
62632;BME280;48703;51.248;-0.546;2022-11-15T01:27:39;99692;;;9.40;86.31
62632;BME280;48703;51.248;-0.546;2022-11-15T01:30:41;99687;;;9.40;86.31
62632;BME280;48703;51.248;-0.546;2022-11-15T01:33:43;99687;;;9.40;86.44
62632;BME280;48703;51.248;-0.546;2022-11-15T01:36:45;99682;;;9.39;86.60
62632;BME280;48703;51.248;-0.546;2022-11-15T01:39:47;99678;;;9.38;86.66
62632;BME280;48703;51.248;-0.546;2022-11-15T01:42:48;99675;;;9.37;86.60
62632;BME280;48703;51.248;-0.546;2022-11-15T01:45:51;99675;;;9.35;86.77
62632;BME280;48703;51.248;-0.546;2022-11-15T01:48:52;99668;;;9.34;86.84
62632;BME280;48703;51.248;-0.546;2022-11-15T01:51:54;99662;;;9.33;86.96
62632;BME280;48703;51.248;-0.546;2022-11-15T01:54:57;99655;;;9.31;87.01
62632;BME280;48703;51.248;-0.546;2022-11-15T01:57:59;99638;;;9.30;87.00
62632;BME280;48703;51.248;-0.546;2022-11-15T02:01:00;99622;;;9.31;87.16
62632;BME280;48703;51.248;-0.546;2022-11-15T02:04:03;99621;;;9.32;87.37
62632;BME280;48703;51.248;-0.546;2022-11-15T02:07:04;99620;;;9.33;87.44
62632;BME280;48703;51.248;-0.546;2022-11-15T02:10:07;99616;;;9.35;87.68
62632;BME280;48703;51.248;-0.546;2022-11-15T02:13:07;99609;;;9.38;87.85
62632;BME280;48703;51.248;-0.546;2022-11-15T02:16:12;99603;;;9.41;87.95
62632;BME280;48703;51.248;-0.546;2022-11-15T02:19:17;99601;;;9.44;88.00
62632;BME280;48703;51.248;-0.546;2022-11-15T02:22:14;99593;;;9.47;88.01
62632;BME280;48703;51.248;-0.546;2022-11-15T02:25:21;99587;;;9.49;88.17
62632;BME280;48703;51.248;-0.546;2022-11-15T02:28:26;99580;;;9.52;88.31
62632;BME280;48703;51.248;-0.546;2022-11-15T02:31:20;99577;;;9.55;88.40
62632;BME280;48703;51.248;-0.546;2022-11-15T02:34:22;99575;;;9.57;88.29
62632;BME280;48703;51.248;-0.546;2022-11-15T02:37:24;99563;;;9.59;88.34
62632;BME280;48703;51.248;-0.546;2022-11-15T02:40:27;99560;;;9.61;88.58
62632;BME280;48703;51.248;-0.546;2022-11-15T02:43:28;99551;;;9.63;88.59
62632;BME280;48703;51.248;-0.546;2022-11-15T02:46:31;99543;;;9.64;88.66
62632;BME280;48703;51.248;-0.546;2022-11-15T02:49:31;99536;;;9.67;88.71
62632;BME280;48703;51.248;-0.546;2022-11-15T02:52:31;99529;;;9.68;88.79
62632;BME280;48703;51.248;-0.546;2022-11-15T02:55:34;99520;;;9.71;88.85
62632;BME280;48703;51.248;-0.546;2022-11-15T02:58:44;99509;;;9.73;88.84
62632;BME280;48703;51.248;-0.546;2022-11-15T03:01:38;99502;;;9.74;88.98
62632;BME280;48703;51.248;-0.546;2022-11-15T03:04:41;99503;;;9.77;89.12
62632;BME280;48703;51.248;-0.546;2022-11-15T03:07:42;99505;;;9.79;89.11
62632;BME280;48703;51.248;-0.546;2022-11-15T03:10:48;99503;;;9.83;89.26
62632;BME280;48703;51.248;-0.546;2022-11-15T03:13:52;99500;;;9.86;89.32
62632;BME280;48703;51.248;-0.546;2022-11-15T03:16:50;99494;;;9.88;89.31
62632;BME280;48703;51.248;-0.546;2022-11-15T03:19:50;99485;;;9.92;89.39
62632;BME280;48703;51.248;-0.546;2022-11-15T03:22:50;99477;;;9.95;89.36
62632;BME280;48703;51.248;-0.546;2022-11-15T03:25:52;99480;;;9.98;89.42
62632;BME280;48703;51.248;-0.546;2022-11-15T03:28:56;99480;;;10.01;89.53
62632;BME280;48703;51.248;-0.546;2022-11-15T03:31:58;99472;;;10.05;89.48
62632;BME280;48703;51.248;-0.546;2022-11-15T03:34:58;99470;;;10.08;89.55
62632;BME280;48703;51.248;-0.546;2022-11-15T03:38:00;99472;;;10.10;89.49
62632;BME280;48703;51.248;-0.546;2022-11-15T03:41:04;99462;;;10.14;89.51
62632;BME280;48703;51.248;-0.546;2022-11-15T03:44:05;99453;;;10.18;89.54
62632;BME280;48703;51.248;-0.546;2022-11-15T03:47:07;99449;;;10.21;89.47
62632;BME280;48703;51.248;-0.546;2022-11-15T03:50:08;99440;;;10.25;89.46
62632;BME280;48703;51.248;-0.546;2022-11-15T03:53:09;99440;;;10.28;89.44
62632;BME280;48703;51.248;-0.546;2022-11-15T03:56:11;99431;;;10.32;89.33
62632;BME280;48703;51.248;-0.546;2022-11-15T03:59:13;99429;;;10.35;89.23
62632;BME280;48703;51.248;-0.546;2022-11-15T04:02:14;99423;;;10.37;89.17
62632;BME280;48703;51.248;-0.546;2022-11-15T04:05:16;99418;;;10.40;89.20
62632;BME280;48703;51.248;-0.546;2022-11-15T04:08:18;99411;;;10.43;89.22
62632;BME280;48703;51.248;-0.546;2022-11-15T04:11:20;99400;;;10.47;89.08
62632;BME280;48703;51.248;-0.546;2022-11-15T04:14:22;99396;;;10.50;88.87
62632;BME280;48703;51.248;-0.546;2022-11-15T04:17:24;99386;;;10.53;88.75
62632;BME280;48703;51.248;-0.546;2022-11-15T04:20:26;99379;;;10.56;88.63
62632;BME280;48703;51.248;-0.546;2022-11-15T04:23:27;99371;;;10.59;88.52
62632;BME280;48703;51.248;-0.546;2022-11-15T04:26:29;99360;;;10.61;88.50
62632;BME280;48703;51.248;-0.546;2022-11-15T04:29:31;99359;;;10.63;88.27
62632;BME280;48703;51.248;-0.546;2022-11-15T04:32:33;99358;;;10.65;88.36
62632;BME280;48703;51.248;-0.546;2022-11-15T04:35:35;99350;;;10.67;88.33
62632;BME280;48703;51.248;-0.546;2022-11-15T04:38:37;99341;;;10.69;88.18
62632;BME280;48703;51.248;-0.546;2022-11-15T04:41:39;99339;;;10.70;88.01
62632;BME280;48703;51.248;-0.546;2022-11-15T04:44:41;99339;;;10.72;88.09
62632;BME280;48703;51.248;-0.546;2022-11-15T04:47:43;99338;;;10.74;87.99
62632;BME280;48703;51.248;-0.546;2022-11-15T04:50:44;99335;;;10.75;88.07
62632;BME280;48703;51.248;-0.546;2022-11-15T04:53:46;99327;;;10.77;87.97
62632;BME280;48703;51.248;-0.546;2022-11-15T04:56:48;99327;;;10.78;87.92
62632;BME280;48703;51.248;-0.546;2022-11-15T04:59:50;99331;;;10.80;87.99
62632;BME280;48703;51.248;-0.546;2022-11-15T05:02:52;99321;;;10.82;87.86
62632;BME280;48703;51.248;-0.546;2022-11-15T05:05:54;99308;;;10.83;87.88
62632;BME280;48703;51.248;-0.546;2022-11-15T05:08:56;99296;;;10.85;87.95
62632;BME280;48703;51.248;-0.546;2022-11-15T05:11:57;99286;;;10.86;87.99
62632;BME280;48703;51.248;-0.546;2022-11-15T05:14:59;99281;;;10.87;88.00
62632;BME280;48703;51.248;-0.546;2022-11-15T05:18:01;99274;;;10.89;88.00
62632;BME280;48703;51.248;-0.546;2022-11-15T05:21:03;99265;;;10.90;88.14
62632;BME280;48703;51.248;-0.546;2022-11-15T05:24:05;99262;;;10.91;88.27
62632;BME280;48703;51.248;-0.546;2022-11-15T05:27:07;99256;;;10.92;88.44
62632;BME280;48703;51.248;-0.546;2022-11-15T05:30:09;99245;;;10.93;88.65
62632;BME280;48703;51.248;-0.546;2022-11-15T05:33:11;99238;;;10.94;88.84
62632;BME280;48703;51.248;-0.546;2022-11-15T05:36:14;99227;;;10.94;89.12
62632;BME280;48703;51.248;-0.546;2022-11-15T05:39:14;99229;;;10.94;89.44
62632;BME280;48703;51.248;-0.546;2022-11-15T05:42:16;99230;;;10.94;89.57
62632;BME280;48703;51.248;-0.546;2022-11-15T05:45:18;99225;;;10.94;89.89
62632;BME280;48703;51.248;-0.546;2022-11-15T05:48:20;99222;;;10.93;89.89
62632;BME280;48703;51.248;-0.546;2022-11-15T05:51:22;99224;;;10.93;90.09
62632;BME280;48703;51.248;-0.546;2022-11-15T05:54:24;99221;;;10.93;90.36
62632;BME280;48703;51.248;-0.546;2022-11-15T05:57:25;99219;;;10.93;90.56
62632;BME280;48703;51.248;-0.546;2022-11-15T06:00:28;99223;;;10.93;90.76
62632;BME280;48703;51.248;-0.546;2022-11-15T06:03:29;99219;;;10.93;90.92
62632;BME280;48703;51.248;-0.546;2022-11-15T06:06:31;99215;;;10.92;91.24
62632;BME280;48703;51.248;-0.546;2022-11-15T06:09:33;99208;;;10.92;91.44
62632;BME280;48703;51.248;-0.546;2022-11-15T06:12:35;99203;;;10.91;91.53
62632;BME280;48703;51.248;-0.546;2022-11-15T06:15:37;99197;;;10.90;91.62
62632;BME280;48703;51.248;-0.546;2022-11-15T06:18:39;99184;;;10.90;91.68
62632;BME280;48703;51.248;-0.546;2022-11-15T06:21:40;99179;;;10.89;91.88
62632;BME280;48703;51.248;-0.546;2022-11-15T06:24:42;99174;;;10.89;91.94
62632;BME280;48703;51.248;-0.546;2022-11-15T06:27:46;99171;;;10.88;92.13
62632;BME280;48703;51.248;-0.546;2022-11-15T06:30:46;99167;;;10.88;92.35
62632;BME280;48703;51.248;-0.546;2022-11-15T06:33:48;99166;;;10.87;92.59
62632;BME280;48703;51.248;-0.546;2022-11-15T06:36:50;99168;;;10.87;92.65
62632;BME280;48703;51.248;-0.546;2022-11-15T06:39:52;99164;;;10.87;92.71
62632;BME280;48703;51.248;-0.546;2022-11-15T06:42:56;99156;;;10.88;92.75
62632;BME280;48703;51.248;-0.546;2022-11-15T06:45:57;99145;;;10.88;92.84
62632;BME280;48703;51.248;-0.546;2022-11-15T06:48:57;99142;;;10.89;92.91
62632;BME280;48703;51.248;-0.546;2022-11-15T06:51:59;99132;;;10.89;93.16
62632;BME280;48703;51.248;-0.546;2022-11-15T06:55:01;99125;;;10.89;93.29
62632;BME280;48703;51.248;-0.546;2022-11-15T06:58:03;99122;;;10.89;93.40
62632;BME280;48703;51.248;-0.546;2022-11-15T07:01:05;99121;;;10.89;93.37
62632;BME280;48703;51.248;-0.546;2022-11-15T07:04:07;99121;;;10.90;93.40
62632;BME280;48703;51.248;-0.546;2022-11-15T07:07:09;99120;;;10.90;93.42
62632;BME280;48703;51.248;-0.546;2022-11-15T07:10:10;99118;;;10.91;93.45
62632;BME280;48703;51.248;-0.546;2022-11-15T07:13:12;99117;;;10.91;93.53
62632;BME280;48703;51.248;-0.546;2022-11-15T07:16:14;99115;;;10.92;93.59
62632;BME280;48703;51.248;-0.546;2022-11-15T07:19:16;99110;;;10.92;93.73
62632;BME280;48703;51.248;-0.546;2022-11-15T07:22:18;99104;;;10.92;93.80
62632;BME280;48703;51.248;-0.546;2022-11-15T07:25:20;99100;;;10.93;93.80
62632;BME280;48703;51.248;-0.546;2022-11-15T07:28:22;99092;;;10.94;93.92
62632;BME280;48703;51.248;-0.546;2022-11-15T07:31:24;99088;;;10.95;93.99
62632;BME280;48703;51.248;-0.546;2022-11-15T07:34:25;99087;;;10.95;94.07
62632;BME280;48703;51.248;-0.546;2022-11-15T07:37:27;99081;;;10.96;94.12
62632;BME280;48703;51.248;-0.546;2022-11-15T07:40:30;99081;;;10.97;94.13
62632;BME280;48703;51.248;-0.546;2022-11-15T07:43:31;99087;;;10.98;94.23
62632;BME280;48703;51.248;-0.546;2022-11-15T07:46:33;99082;;;10.99;94.29
62632;BME280;48703;51.248;-0.546;2022-11-15T07:49:35;99074;;;11.00;94.35
62632;BME280;48703;51.248;-0.546;2022-11-15T07:52:37;99078;;;11.01;94.27
62632;BME280;48703;51.248;-0.546;2022-11-15T07:55:39;99075;;;11.01;94.29
62632;BME280;48703;51.248;-0.546;2022-11-15T07:58:40;99073;;;11.03;94.35
62632;BME280;48703;51.248;-0.546;2022-11-15T08:01:42;99075;;;11.04;94.44
62632;BME280;48703;51.248;-0.546;2022-11-15T08:04:44;99075;;;11.04;94.50
62632;BME280;48703;51.248;-0.546;2022-11-15T08:07:46;99075;;;11.05;94.46
62632;BME280;48703;51.248;-0.546;2022-11-15T08:10:48;99072;;;11.06;94.47
62632;BME280;48703;51.248;-0.546;2022-11-15T08:13:50;99070;;;11.07;94.46
62632;BME280;48703;51.248;-0.546;2022-11-15T08:16:52;99068;;;11.08;94.51
62632;BME280;48703;51.248;-0.546;2022-11-15T08:19:53;99066;;;11.09;94.52
62632;BME280;48703;51.248;-0.546;2022-11-15T08:22:55;99063;;;11.10;94.59
62632;BME280;48703;51.248;-0.546;2022-11-15T08:25:59;99058;;;11.12;94.58
62632;BME280;48703;51.248;-0.546;2022-11-15T08:28:59;99053;;;11.13;94.65
62632;BME280;48703;51.248;-0.546;2022-11-15T08:32:01;99048;;;11.14;94.69
62632;BME280;48703;51.248;-0.546;2022-11-15T08:35:03;99044;;;11.15;94.67
62632;BME280;48703;51.248;-0.546;2022-11-15T08:38:05;99038;;;11.16;94.75
62632;BME280;48703;51.248;-0.546;2022-11-15T08:41:09;99034;;;11.17;94.86
62632;BME280;48703;51.248;-0.546;2022-11-15T08:44:08;99028;;;11.18;94.85
62632;BME280;48703;51.248;-0.546;2022-11-15T08:47:10;99024;;;11.20;95.09
62632;BME280;48703;51.248;-0.546;2022-11-15T08:50:12;99016;;;11.21;95.06
62632;BME280;48703;51.248;-0.546;2022-11-15T08:53:14;99014;;;11.22;95.09
62632;BME280;48703;51.248;-0.546;2022-11-15T08:56:16;99009;;;11.24;95.00
62632;BME280;48703;51.248;-0.546;2022-11-15T08:59:18;98998;;;11.25;95.06
62632;BME280;48703;51.248;-0.546;2022-11-15T09:02:20;98997;;;11.26;95.03
62632;BME280;48703;51.248;-0.546;2022-11-15T09:05:22;98991;;;11.28;95.07
62632;BME280;48703;51.248;-0.546;2022-11-15T09:08:23;98985;;;11.29;95.24
62632;BME280;48703;51.248;-0.546;2022-11-15T09:11:25;98980;;;11.30;95.14
62632;BME280;48703;51.248;-0.546;2022-11-15T09:14:27;98971;;;11.31;95.08
62632;BME280;48703;51.248;-0.546;2022-11-15T09:17:29;98960;;;11.32;95.11
62632;BME280;48703;51.248;-0.546;2022-11-15T09:20:31;98951;;;11.34;95.23
62632;BME280;48703;51.248;-0.546;2022-11-15T09:23:33;98943;;;11.35;95.32
62632;BME280;48703;51.248;-0.546;2022-11-15T09:26:35;98939;;;11.36;95.25
62632;BME280;48703;51.248;-0.546;2022-11-15T09:29:37;98941;;;11.38;95.26
62632;BME280;48703;51.248;-0.546;2022-11-15T09:32:38;98935;;;11.39;95.36
62632;BME280;48703;51.248;-0.546;2022-11-15T09:35:40;98924;;;11.41;95.32
62632;BME280;48703;51.248;-0.546;2022-11-15T09:38:42;98913;;;11.42;95.31
62632;BME280;48703;51.248;-0.546;2022-11-15T09:41:48;98907;;;11.44;95.24
62632;BME280;48703;51.248;-0.546;2022-11-15T09:44:51;98904;;;11.45;95.25
62632;BME280;48703;51.248;-0.546;2022-11-15T09:47:59;98904;;;11.46;95.32
62632;BME280;48703;51.248;-0.546;2022-11-15T09:50:50;98899;;;11.47;95.35
62632;BME280;48703;51.248;-0.546;2022-11-15T09:53:54;98890;;;11.49;95.33
62632;BME280;48703;51.248;-0.546;2022-11-15T09:56:54;98888;;;11.50;95.28
62632;BME280;48703;51.248;-0.546;2022-11-15T09:59:59;98884;;;11.51;95.38
62632;BME280;48703;51.248;-0.546;2022-11-15T10:03:00;98883;;;11.52;95.29
62632;BME280;48703;51.248;-0.546;2022-11-15T10:06:00;98874;;;11.53;95.30
62632;BME280;48703;51.248;-0.546;2022-11-15T10:09:01;98873;;;11.53;95.26
62632;BME280;48703;51.248;-0.546;2022-11-15T10:12:03;98868;;;11.54;95.24
62632;BME280;48703;51.248;-0.546;2022-11-15T10:15:06;98864;;;11.54;95.28
62632;BME280;48703;51.248;-0.546;2022-11-15T10:18:08;98853;;;11.55;95.21
62632;BME280;48703;51.248;-0.546;2022-11-15T10:21:10;98853;;;11.55;95.18
62632;BME280;48703;51.248;-0.546;2022-11-15T10:24:11;98845;;;11.55;95.23
62632;BME280;48703;51.248;-0.546;2022-11-15T10:27:13;98842;;;11.55;95.24
62632;BME280;48703;51.248;-0.546;2022-11-15T10:30:15;98830;;;11.56;95.21
62632;BME280;48703;51.248;-0.546;2022-11-15T10:33:18;98830;;;11.57;95.32
62632;BME280;48703;51.248;-0.546;2022-11-15T10:36:19;98828;;;11.59;95.34
62632;BME280;48703;51.248;-0.546;2022-11-15T10:39:19;98819;;;11.61;95.41
62632;BME280;48703;51.248;-0.546;2022-11-15T10:42:25;98813;;;11.62;95.39
62632;BME280;48703;51.248;-0.546;2022-11-15T10:45:24;98812;;;11.64;95.47
62632;BME280;48703;51.248;-0.546;2022-11-15T10:48:25;98802;;;11.65;95.47
62632;BME280;48703;51.248;-0.546;2022-11-15T10:51:27;98798;;;11.66;95.48
62632;BME280;48703;51.248;-0.546;2022-11-15T10:54:34;98796;;;11.67;95.50
62632;BME280;48703;51.248;-0.546;2022-11-15T10:57:31;98793;;;11.68;95.49
62632;BME280;48703;51.248;-0.546;2022-11-15T11:00:33;98790;;;11.69;95.51
62632;BME280;48703;51.248;-0.546;2022-11-15T11:03:35;98785;;;11.69;95.44
62632;BME280;48703;51.248;-0.546;2022-11-15T11:06:45;98782;;;11.69;95.43
62632;BME280;48703;51.248;-0.546;2022-11-15T11:09:39;98773;;;11.70;95.41
62632;BME280;48703;51.248;-0.546;2022-11-15T11:12:40;98766;;;11.70;95.46
62632;BME280;48703;51.248;-0.546;2022-11-15T11:15:42;98756;;;11.71;95.47
62632;BME280;48703;51.248;-0.546;2022-11-15T11:18:46;98749;;;11.70;95.47
62632;BME280;48703;51.248;-0.546;2022-11-15T11:21:48;98738;;;11.71;95.39
62632;BME280;48703;51.248;-0.546;2022-11-15T11:24:50;98732;;;11.71;95.42
62632;BME280;48703;51.248;-0.546;2022-11-15T11:27:55;98721;;;11.71;95.49
62632;BME280;48703;51.248;-0.546;2022-11-15T11:30:54;98713;;;11.72;95.44
62632;BME280;48703;51.248;-0.546;2022-11-15T11:33:56;98703;;;11.73;95.46
62632;BME280;48703;51.248;-0.546;2022-11-15T11:36:57;98701;;;11.73;95.47
62632;BME280;48703;51.248;-0.546;2022-11-15T11:40:00;98698;;;11.74;95.49
62632;BME280;48703;51.248;-0.546;2022-11-15T11:43:01;98694;;;11.75;95.49
62632;BME280;48703;51.248;-0.546;2022-11-15T11:46:08;98693;;;11.76;95.46
62632;BME280;48703;51.248;-0.546;2022-11-15T11:49:04;98686;;;11.76;95.55
62632;BME280;48703;51.248;-0.546;2022-11-15T11:52:07;98673;;;11.77;95.74
62632;BME280;48703;51.248;-0.546;2022-11-15T11:55:12;98670;;;11.78;95.73
62632;BME280;48703;51.248;-0.546;2022-11-15T11:58:11;98662;;;11.79;95.78
62632;BME280;48703;51.248;-0.546;2022-11-15T12:01:12;98657;;;11.80;95.73
62632;BME280;48703;51.248;-0.546;2022-11-15T12:04:13;98646;;;11.81;95.75
62632;BME280;48703;51.248;-0.546;2022-11-15T12:07:15;98640;;;11.83;95.82
62632;BME280;48703;51.248;-0.546;2022-11-15T12:10:18;98635;;;11.85;95.81
62632;BME280;48703;51.248;-0.546;2022-11-15T12:13:18;98630;;;11.86;95.81
62632;BME280;48703;51.248;-0.546;2022-11-15T12:16:20;98631;;;11.87;95.74
62632;BME280;48703;51.248;-0.546;2022-11-15T12:19:21;98633;;;11.88;95.76
62632;BME280;48703;51.248;-0.546;2022-11-15T12:22:24;98625;;;11.90;95.83
62632;BME280;48703;51.248;-0.546;2022-11-15T12:25:27;98621;;;11.92;95.79
62632;BME280;48703;51.248;-0.546;2022-11-15T12:28:29;98616;;;11.94;95.86
62632;BME280;48703;51.248;-0.546;2022-11-15T12:31:30;98621;;;11.95;95.84
62632;BME280;48703;51.248;-0.546;2022-11-15T12:34:40;98608;;;11.99;95.90
62632;BME280;48703;51.248;-0.546;2022-11-15T12:41:35;98622;;;12.11;95.82
62632;BME280;48703;51.248;-0.546;2022-11-15T12:45:24;98620;;;12.15;95.82
62632;BME280;48703;51.248;-0.546;2022-11-15T12:47:39;98620;;;12.19;95.49
62632;BME280;48703;51.248;-0.546;2022-11-15T12:50:57;98622;;;12.23;95.33
62632;BME280;48703;51.248;-0.546;2022-11-15T12:53:42;98622;;;12.27;95.12
62632;BME280;48703;51.248;-0.546;2022-11-15T12:56:44;98617;;;12.29;94.78
62632;BME280;48703;51.248;-0.546;2022-11-15T12:59:48;98615;;;12.34;94.58
62632;BME280;48703;51.248;-0.546;2022-11-15T13:02:48;98615;;;12.38;94.38
62632;BME280;48703;51.248;-0.546;2022-11-15T13:05:54;98624;;;12.43;94.43
62632;BME280;48703;51.248;-0.546;2022-11-15T13:08:52;98629;;;12.44;93.92
62632;BME280;48703;51.248;-0.546;2022-11-15T13:11:54;98629;;;12.43;93.61
62632;BME280;48703;51.248;-0.546;2022-11-15T13:14:56;98635;;;12.41;93.12
62632;BME280;48703;51.248;-0.546;2022-11-15T13:17:57;98637;;;12.45;93.26
62632;BME280;48703;51.248;-0.546;2022-11-15T13:21:00;98641;;;12.52;93.47
62632;BME280;48703;51.248;-0.546;2022-11-15T13:24:01;98646;;;12.58;93.46
62632;BME280;48703;51.248;-0.546;2022-11-15T13:27:10;98651;;;12.63;92.66
62632;BME280;48703;51.248;-0.546;2022-11-15T13:30:05;98652;;;12.67;92.43
62632;BME280;48703;51.248;-0.546;2022-11-15T13:33:09;98648;;;12.66;91.93
62632;BME280;48703;51.248;-0.546;2022-11-15T13:36:12;98644;;;12.66;91.57
62632;BME280;48703;51.248;-0.546;2022-11-15T13:39:23;98647;;;12.65;91.04
62632;BME280;48703;51.248;-0.546;2022-11-15T13:42:14;98645;;;12.60;91.02
62632;BME280;48703;51.248;-0.546;2022-11-15T13:45:15;98650;;;12.59;91.26
62632;BME280;48703;51.248;-0.546;2022-11-15T13:48:16;98655;;;12.61;91.23
62632;BME280;48703;51.248;-0.546;2022-11-15T13:51:19;98658;;;12.64;91.42
62632;BME280;48703;51.248;-0.546;2022-11-15T13:54:20;98660;;;12.64;90.38
62632;BME280;48703;51.248;-0.546;2022-11-15T13:57:23;98655;;;12.61;89.15
62632;BME280;48703;51.248;-0.546;2022-11-15T14:00:27;98660;;;12.60;89.00
62632;BME280;48703;51.248;-0.546;2022-11-15T14:03:26;98664;;;12.59;89.51
62632;BME280;48703;51.248;-0.546;2022-11-15T14:06:28;98667;;;12.60;89.43
62632;BME280;48703;51.248;-0.546;2022-11-15T14:09:35;98669;;;12.57;88.66
62632;BME280;48703;51.248;-0.546;2022-11-15T14:12:32;98673;;;12.56;88.65
62632;BME280;48703;51.248;-0.546;2022-11-15T14:15:34;98669;;;12.57;88.92
62632;BME280;48703;51.248;-0.546;2022-11-15T14:18:41;98671;;;12.58;88.66
62632;BME280;48703;51.248;-0.546;2022-11-15T14:21:37;98675;;;12.58;88.55
62632;BME280;48703;51.248;-0.546;2022-11-15T14:24:39;98673;;;12.58;88.59
62632;BME280;48703;51.248;-0.546;2022-11-15T14:27:41;98675;;;12.50;87.19
62632;BME280;48703;51.248;-0.546;2022-11-15T14:30:43;98671;;;12.44;88.24
62632;BME280;48703;51.248;-0.546;2022-11-15T14:33:44;98671;;;12.39;88.14
62632;BME280;48703;51.248;-0.546;2022-11-15T14:36:46;98671;;;12.36;87.70
62632;BME280;48703;51.248;-0.546;2022-11-15T14:39:48;98673;;;12.37;88.18
62632;BME280;48703;51.248;-0.546;2022-11-15T14:42:50;98670;;;12.36;87.27
62632;BME280;48703;51.248;-0.546;2022-11-15T14:45:52;98674;;;12.36;87.77
62632;BME280;48703;51.248;-0.546;2022-11-15T14:48:54;98675;;;12.33;87.55
62632;BME280;48703;51.248;-0.546;2022-11-15T14:51:55;98674;;;12.31;87.69
62632;BME280;48703;51.248;-0.546;2022-11-15T14:54:57;98676;;;12.29;87.80
62632;BME280;48703;51.248;-0.546;2022-11-15T14:57:59;98680;;;12.25;87.88
62632;BME280;48703;51.248;-0.546;2022-11-15T15:01:01;98679;;;12.21;87.77
62632;BME280;48703;51.248;-0.546;2022-11-15T15:04:03;98675;;;12.17;87.42
62632;BME280;48703;51.248;-0.546;2022-11-15T15:07:05;98674;;;12.13;87.50
62632;BME280;48703;51.248;-0.546;2022-11-15T15:10:07;98678;;;12.10;87.82
62632;BME280;48703;51.248;-0.546;2022-11-15T15:13:12;98683;;;12.07;87.98
62632;BME280;48703;51.248;-0.546;2022-11-15T15:16:10;98686;;;12.04;88.19
62632;BME280;48703;51.248;-0.546;2022-11-15T15:19:12;98688;;;12.02;88.46
62632;BME280;48703;51.248;-0.546;2022-11-15T15:22:15;98691;;;12.00;88.42
62632;BME280;48703;51.248;-0.546;2022-11-15T15:25:20;98692;;;11.99;88.78
62632;BME280;48703;51.248;-0.546;2022-11-15T15:28:18;98691;;;11.97;88.88
62632;BME280;48703;51.248;-0.546;2022-11-15T15:31:20;98689;;;11.95;89.02
62632;BME280;48703;51.248;-0.546;2022-11-15T15:34:22;98690;;;11.94;89.31
62632;BME280;48703;51.248;-0.546;2022-11-15T15:37:25;98689;;;11.92;89.19
62632;BME280;48703;51.248;-0.546;2022-11-15T15:40:27;98695;;;11.89;88.93
62632;BME280;48703;51.248;-0.546;2022-11-15T15:43:27;98688;;;11.85;88.94
62632;BME280;48703;51.248;-0.546;2022-11-15T15:46:29;98692;;;11.85;89.32
62632;BME280;48703;51.248;-0.546;2022-11-15T15:49:31;98695;;;11.83;89.53
62632;BME280;48703;51.248;-0.546;2022-11-15T15:52:33;98692;;;11.80;88.80
62632;BME280;48703;51.248;-0.546;2022-11-15T15:55:35;98699;;;11.75;88.11
62632;BME280;48703;51.248;-0.546;2022-11-15T15:58:37;98691;;;11.72;88.47
62632;BME280;48703;51.248;-0.546;2022-11-15T16:01:38;98691;;;11.68;88.49
62632;BME280;48703;51.248;-0.546;2022-11-15T16:04:40;98693;;;11.64;88.22
62632;BME280;48703;51.248;-0.546;2022-11-15T16:07:43;98690;;;11.59;88.70
62632;BME280;48703;51.248;-0.546;2022-11-15T16:10:44;98689;;;11.53;88.51
62632;BME280;48703;51.248;-0.546;2022-11-15T16:13:46;98681;;;11.47;88.81
62632;BME280;48703;51.248;-0.546;2022-11-15T16:16:48;98673;;;11.42;88.79
62632;BME280;48703;51.248;-0.546;2022-11-15T16:19:50;98672;;;11.36;89.01
62632;BME280;48703;51.248;-0.546;2022-11-15T16:22:52;98674;;;11.31;89.08
62632;BME280;48703;51.248;-0.546;2022-11-15T16:25:54;98678;;;11.25;88.97
62632;BME280;48703;51.248;-0.546;2022-11-15T16:28:55;98676;;;11.20;89.22
62632;BME280;48703;51.248;-0.546;2022-11-15T16:31:57;98686;;;11.18;89.38
62632;BME280;48703;51.248;-0.546;2022-11-15T16:34:59;98692;;;11.16;89.39
62632;BME280;48703;51.248;-0.546;2022-11-15T16:38:01;98691;;;11.13;89.36